createdAt,value
2022-09-15T00:01:46.881Z,1.80
2022-09-15T00:07:41.597Z,1.80
2022-09-15T00:13:36.077Z,3.03
2022-09-15T00:19:29.659Z,1.43
2022-09-15T00:25:24.237Z,1.97
2022-09-15T00:31:18.826Z,1.73
2022-09-15T00:37:12.087Z,2.23
2022-09-15T00:43:10.625Z,1.57
2022-09-15T00:49:07.662Z,1.73
2022-09-15T00:55:07.740Z,1.43
2022-09-15T01:01:04.649Z,1.80
2022-09-15T01:07:02.769Z,1.70
2022-09-15T01:12:59.574Z,1.60
2022-09-15T01:19:04.584Z,1.33
2022-09-15T01:25:09.030Z,1.30
2022-09-15T01:31:10.096Z,1.50
2022-09-15T01:37:07.366Z,1.70
2022-09-15T01:43:02.576Z,1.40
2022-09-15T01:48:59.533Z,1.47
2022-09-15T01:54:56.748Z,1.70
2022-09-15T02:00:55.059Z,2.10
2022-09-15T02:06:58.246Z,2.67
2022-09-15T02:12:58.125Z,2.10
2022-09-15T02:19:16.854Z,1.87
2022-09-15T02:25:14.925Z,1.80
2022-09-15T02:31:11.822Z,1.77
2022-09-15T02:37:06.073Z,2.10
2022-09-15T02:43:03.220Z,2.00
2022-09-15T02:48:57.287Z,2.70
2022-09-15T02:54:51.074Z,2.27
2022-09-15T03:00:45.395Z,2.10
2022-09-15T03:06:38.645Z,2.60
2022-09-15T03:12:31.900Z,2.10
2022-09-15T03:18:26.569Z,2.43
2022-09-15T03:24:20.337Z,2.07
2022-09-15T03:30:14.462Z,2.47
2022-09-15T03:36:09.651Z,2.20
2022-09-15T03:42:02.886Z,1.97
2022-09-15T03:47:56.151Z,2.40
2022-09-15T03:53:51.075Z,2.57
2022-09-15T03:59:44.570Z,2.90
2022-09-15T04:05:39.075Z,2.07
2022-09-15T04:11:33.367Z,3.00
2022-09-15T04:17:26.632Z,2.90
2022-09-15T04:23:20.501Z,3.13
2022-09-15T04:29:17.919Z,2.80
2022-09-15T04:35:11.995Z,2.53
2022-09-15T04:41:05.706Z,2.53
2022-09-15T04:47:00.411Z,3.07
2022-09-15T04:52:53.560Z,2.77
2022-09-15T04:58:48.620Z,2.50
2022-09-15T05:04:43.357Z,2.50
2022-09-15T05:10:38.490Z,2.60
2022-09-15T05:16:32.744Z,3.10
2022-09-15T05:22:27.657Z,2.63
2022-09-15T05:28:20.859Z,2.93
2022-09-15T05:34:14.125Z,2.50
2022-09-15T05:40:10.426Z,2.70
2022-09-15T05:46:04.553Z,2.30
2022-09-15T05:51:57.918Z,2.10
2022-09-15T05:57:52.477Z,1.47
2022-09-15T06:03:45.965Z,2.20
2022-09-15T06:09:39.717Z,2.00
2022-09-15T06:15:34.381Z,2.33
2022-09-15T06:21:30.281Z,2.43
2022-09-15T06:27:23.538Z,2.30
2022-09-15T06:33:18.454Z,2.00
2022-09-15T06:39:11.807Z,2.80
2022-09-15T06:45:05.494Z,2.50
2022-09-15T06:51:01.724Z,2.00
2022-09-15T06:56:55.056Z,1.77
2022-09-15T07:02:50.619Z,1.50
2022-09-15T07:08:45.723Z,1.87
2022-09-15T07:14:38.955Z,1.83
2022-09-15T07:20:32.242Z,1.27
2022-09-15T07:26:28.483Z,1.63
2022-09-15T07:32:21.761Z,1.77
2022-09-15T07:38:15.051Z,1.53
2022-09-15T07:44:12.193Z,1.50
2022-09-15T07:50:08.061Z,1.90
2022-09-15T07:56:01.343Z,2.73
2022-09-15T08:01:56.260Z,1.90
2022-09-15T08:07:49.811Z,1.77
2022-09-15T08:13:43.091Z,1.53
2022-09-15T08:19:37.752Z,1.80
2022-09-15T08:25:31.995Z,1.70
2022-09-15T08:31:26.832Z,3.07
2022-09-15T08:37:21.092Z,1.60
2022-09-15T08:43:19.016Z,1.60
2022-09-15T08:49:30.765Z,1.40
2022-09-15T08:55:38.796Z,1.37
2022-09-15T09:01:42.718Z,2.30
2022-09-15T09:07:53.294Z,1.30
2022-09-15T09:13:54.498Z,1.07
2022-09-15T09:20:15.635Z,1.50
2022-09-15T09:26:13.823Z,1.23
2022-09-15T09:32:19.791Z,1.37
2022-09-15T09:38:21.277Z,1.20
2022-09-15T09:44:16.248Z,1.53
2022-09-15T09:50:36.800Z,1.27
2022-09-15T09:56:30.255Z,1.67
2022-09-15T10:02:25.535Z,1.43
2022-09-15T10:08:21.999Z,1.10
2022-09-15T10:14:21.314Z,1.80
2022-09-15T10:20:36.558Z,1.20
2022-09-15T10:26:36.495Z,1.87
2022-09-15T10:32:32.006Z,1.43
2022-09-15T10:38:34.102Z,1.63
2022-09-15T10:44:41.442Z,1.10
2022-09-15T10:50:47.661Z,1.00
2022-09-15T10:56:44.317Z,0.90
2022-09-15T11:03:11.814Z,1.30
2022-09-15T11:09:20.082Z,1.17
2022-09-15T11:15:27.464Z,0.80
2022-09-15T11:21:31.316Z,1.10
2022-09-15T11:27:28.737Z,1.00
2022-09-15T11:33:27.546Z,0.93
2022-09-15T11:39:26.177Z,0.90
2022-09-15T11:45:22.925Z,1.13
2022-09-15T11:51:19.989Z,1.00
2022-09-15T11:57:21.729Z,1.20
2022-09-15T12:03:21.598Z,0.70
2022-09-15T12:09:17.080Z,1.03
2022-09-15T12:15:17.908Z,0.90
2022-09-15T12:21:18.826Z,1.20
2022-09-15T12:27:17.224Z,0.90
2022-09-15T12:33:54.924Z,1.50
2022-09-15T12:39:48.983Z,0.90
2022-09-15T12:45:43.945Z,1.10
2022-09-15T12:51:38.936Z,0.80
2022-09-15T12:57:35.709Z,0.97
2022-09-15T13:03:50.558Z,1.00
2022-09-15T13:09:56.835Z,1.00
2022-09-15T13:15:52.946Z,1.57
2022-09-15T13:21:52.218Z,1.30
2022-09-15T13:27:50.092Z,1.30
2022-09-15T13:40:44.938Z,1.17
2022-09-15T13:46:51.172Z,1.00
2022-09-15T13:52:56.015Z,2.00
2022-09-15T13:59:01.747Z,1.00
2022-09-15T14:05:01.771Z,1.37
2022-09-15T14:10:57.794Z,1.33
2022-09-15T14:16:51.600Z,1.00
2022-09-15T14:22:50.764Z,1.17
2022-09-15T14:28:51.369Z,1.30
2022-09-15T14:40:41.709Z,0.80
2022-09-15T14:46:38.900Z,1.00
2022-09-15T14:52:38.954Z,1.40
2022-09-15T14:58:37.667Z,1.47
2022-09-15T15:04:38.248Z,1.37
2022-09-15T15:10:35.860Z,0.90
2022-09-15T15:16:32.994Z,0.80
2022-09-15T15:22:27.124Z,0.90
2022-09-15T15:28:39.640Z,1.30
2022-09-15T15:34:34.341Z,1.23
2022-09-15T15:40:28.434Z,1.23
2022-09-15T15:46:50.512Z,1.50
2022-09-15T15:52:44.981Z,1.60
2022-09-15T15:58:38.486Z,1.30
2022-09-15T16:04:33.110Z,1.67
2022-09-15T16:10:31.192Z,1.33
2022-09-15T16:16:26.455Z,1.60
2022-09-15T16:22:21.789Z,2.37
2022-09-15T16:28:15.630Z,1.60
2022-09-15T16:34:12.172Z,1.80
2022-09-15T16:40:07.980Z,1.40
2022-09-15T16:46:01.655Z,1.20
2022-09-15T16:51:54.897Z,1.70
2022-09-15T16:57:49.463Z,1.40
2022-09-15T17:03:43.696Z,1.40
2022-09-15T17:09:37.273Z,1.87
2022-09-15T17:15:35.560Z,2.00
2022-09-15T17:21:28.550Z,2.17
2022-09-15T17:27:21.787Z,1.20
2022-09-15T17:33:17.639Z,1.27
2022-09-15T17:39:11.194Z,1.80
2022-09-15T17:45:11.181Z,1.33
2022-09-15T17:51:06.722Z,1.20
2022-09-15T17:56:59.624Z,1.00
2022-09-15T18:02:54.701Z,1.60
2022-09-15T18:08:49.349Z,1.60
2022-09-15T18:14:42.219Z,1.47
2022-09-15T18:20:36.311Z,1.63
2022-09-15T18:26:30.992Z,1.70
2022-09-15T18:32:24.314Z,1.73
2022-09-15T18:38:18.426Z,1.83
2022-09-15T18:44:13.048Z,1.73
2022-09-15T18:50:08.137Z,1.60
2022-09-15T18:56:01.358Z,1.20
2022-09-15T19:01:56.120Z,2.00
2022-09-15T19:07:49.866Z,2.50
2022-09-15T19:13:43.115Z,2.40
2022-09-15T19:19:37.846Z,2.00
2022-09-15T19:25:31.093Z,1.87
2022-09-15T19:31:25.509Z,1.53
2022-09-15T19:37:22.391Z,1.77
2022-09-15T19:43:15.677Z,1.40
2022-09-15T19:49:08.985Z,1.40
2022-09-15T19:55:04.278Z,2.47
2022-09-15T20:00:58.686Z,1.60
2022-09-15T20:06:52.155Z,1.20
2022-09-15T20:12:46.659Z,1.50
2022-09-15T20:18:41.786Z,1.30
2022-09-15T20:24:34.658Z,1.63
2022-09-15T20:30:29.408Z,1.40
2022-09-15T20:36:24.580Z,1.50
2022-09-15T20:42:17.803Z,1.50
2022-09-15T20:48:12.365Z,2.43
2022-09-15T20:54:06.203Z,1.77
2022-09-15T20:59:59.554Z,1.73
2022-09-15T21:06:00.042Z,1.93
2022-09-15T21:11:53.718Z,1.60
2022-09-15T21:17:47.082Z,1.43
2022-09-15T21:23:43.187Z,1.73
2022-09-15T21:29:36.450Z,1.43
2022-09-15T21:35:29.686Z,1.77
2022-09-15T21:41:26.398Z,2.03
2022-09-15T21:47:19.934Z,2.03
2022-09-15T21:53:13.094Z,2.97
2022-09-15T21:59:09.308Z,4.63
2022-09-15T22:05:02.723Z,5.80
2022-09-15T22:11:01.539Z,8.50
2022-09-15T22:16:56.404Z,5.90
2022-09-15T22:22:49.877Z,4.33
2022-09-15T22:28:44.148Z,2.73
2022-09-15T22:34:38.796Z,1.70
2022-09-15T22:40:32.427Z,1.13
2022-09-15T22:46:25.439Z,2.53
2022-09-15T22:52:20.635Z,1.63
2022-09-15T22:58:13.943Z,1.60
2022-09-15T23:04:06.853Z,1.87
2022-09-15T23:10:01.443Z,1.93
2022-09-15T23:15:54.709Z,1.60
2022-09-15T23:21:47.996Z,1.60
2022-09-15T23:27:42.693Z,1.50
2022-09-15T23:33:36.147Z,1.80
2022-09-15T23:39:29.407Z,1.20
2022-09-15T23:45:23.821Z,1.50
2022-09-15T23:51:17.128Z,1.50
2022-09-15T23:57:12.014Z,1.67
